Time;durP1;ratioP1;P1;durP2;ratioP2;P2;SDS_P1;SDS_P2;PMS_P1;PMS_P2;Temp;Humidity;BMP_temperature;BMP_pressure;BME280_temperature;BME280_humidity;BME280_pressure;Samples;Min_cycle;Max_cycle;Signal;HPM_P1;HPM_P2
2022/06/02 00:00:05;;;;;;;9.30;6.50;;;;;;;15.22;61.75;97839.79;106025;1280;25570;-85
2022/06/02 00:03:28;;;;;;;9.90;7.00;;;;;;;15.28;61.68;97841.71;105662;1280;22578;-86
2022/06/02 00:06:21;;;;;;;8.40;5.70;;;;;;;15.36;61.71;97852.20;106042;1281;24230;-89
2022/06/02 00:09:30;;;;;;;8.50;6.20;;;;;;;15.40;61.65;97854.33;105855;1280;25449;-90
2022/06/02 00:12:07;;;;;;;8.20;6.30;;;;;;;15.43;61.64;97856.31;106211;1280;22559;-91
2022/06/02 00:14:54;;;;;;;8.80;6.00;;;;;;;15.45;61.54;97858.64;106076;1280;22656;-91
2022/06/02 00:17:38;;;;;;;11.10;6.40;;;;;;;15.44;61.58;97879.54;105999;1281;24291;-89
2022/06/02 00:20:09;;;;;;;9.00;7.00;;;;;;;15.43;62.75;97930.86;105601;1284;22570;-88
2022/06/02 00:22:51;;;;;;;10.70;9.40;;;;;;;15.40;63.86;97969.70;106020;1280;24110;-91
2022/06/02 00:25:30;;;;;;;10.50;8.40;;;;;;;15.21;64.72;97988.80;106126;1280;22723;-93
2022/06/02 00:28:46;;;;;;;14.00;9.00;;;;;;;14.96;66.30;97991.91;105743;1284;22558;-92
2022/06/02 00:31:30;;;;;;;13.10;9.20;;;;;;;14.73;66.51;97992.55;105350;1285;22690;-91
2022/06/02 00:34:39;;;;;;;10.80;9.70;;;;;;;14.60;66.55;97993.64;105264;1287;24292;-91
2022/06/02 00:37:48;;;;;;;11.30;9.20;;;;;;;14.50;66.97;98000.60;105479;1286;25934;-90
2022/06/02 00:40:16;;;;;;;10.60;9.00;;;;;;;14.49;69.60;98003.00;105343;1287;24269;-91
2022/06/02 00:43:13;;;;;;;14.80;9.30;;;;;;;14.48;69.79;98008.90;105274;1287;24437;-88
2022/06/02 00:45:43;;;;;;;10.70;9.40;;;;;;;14.45;72.25;98008.19;105819;1286;22890;-94
2022/06/02 00:48:32;;;;;;;15.80;10.80;;;;;;;14.37;72.70;97999.00;106109;1286;22671;-94
2022/06/02 00:51:03;;;;;;;10.90;9.00;;;;;;;14.29;73.91;97994.39;106134;1286;22843;-94
2022/06/02 01:03:22;;;;;;;10.10;8.90;;;;;;;14.09;74.69;97986.60;108961;1268;22546;-88
2022/06/02 01:06:08;;;;;;;10.80;9.20;;;;;;;14.05;74.99;97984.27;109477;1267;22568;-90
2022/06/02 01:09:07;;;;;;;11.00;9.00;;;;;;;14.06;75.45;97976.88;108189;1277;22592;-91
2022/06/02 01:11:54;;;;;;;9.70;8.30;;;;;;;14.00;76.15;97970.05;108171;1277;22820;-93
2022/06/02 01:14:50;;;;;;;9.90;8.10;;;;;;;13.98;75.76;97961.66;106882;1277;24347;-90
2022/06/02 01:17:30;;;;;;;10.70;8.30;;;;;;;13.95;75.72;97955.16;107606;1277;22469;-93
2022/06/02 01:20:13;;;;;;;12.40;8.50;;;;;;;13.93;76.47;97938.91;108246;1277;22550;-94
2022/06/02 01:22:46;;;;;;;10.60;8.20;;;;;;;13.90;77.14;97941.40;108511;1275;22720;-91
2022/06/02 01:25:23;;;;;;;10.10;9.00;;;;;;;13.86;77.80;97951.52;108386;1277;23078;-94
2022/06/02 01:28:04;;;;;;;10.20;8.30;;;;;;;13.81;77.49;97957.90;108491;1277;22750;-92
2022/06/02 01:34:06;;;;;;;11.30;9.10;;;;;;;13.81;78.55;97975.52;108179;1280;23247;-92
2022/06/02 01:37:04;;;;;;;9.30;8.30;;;;;;;13.84;79.88;97971.48;107236;1281;22631;-93
2022/06/02 01:40:06;;;;;;;9.50;8.50;;;;;;;13.80;79.79;97963.10;107315;1280;22569;-91
2022/06/02 01:43:11;;;;;;;8.90;8.00;;;;;;;13.80;79.85;97969.51;108037;1281;22518;-91
2022/06/02 01:46:04;;;;;;;8.60;7.70;;;;;;;13.70;79.21;97966.76;108238;1281;22563;-94
2022/06/02 01:48:42;;;;;;;7.70;6.90;;;;;;;13.73;78.68;97972.75;108482;1280;22687;-91
2022/06/02 01:51:34;;;;;;;7.50;6.70;;;;;;;13.73;78.93;97976.60;108401;1281;22538;-94
2022/06/02 01:54:35;;;;;;;9.70;6.20;;;;;;;13.73;79.25;97979.44;108769;1281;25701;-94
2022/06/02 02:00:02;;;;;;;10.70;5.80;;;;;;;13.77;79.48;97971.77;109430;1279;22531;-90
2022/06/02 02:02:40;;;;;;;6.70;6.00;;;;;;;13.77;79.84;97966.06;109446;1279;22688;-88
2022/06/02 02:05:39;;;;;;;10.60;6.10;;;;;;;13.76;80.49;97959.27;108621;1279;22697;-85
2022/06/02 02:08:34;;;;;;;8.00;5.30;;;;;;;13.72;81.07;97952.96;108738;1279;22535;-93
2022/06/02 02:11:11;;;;;;;;;;;;;;;13.69;82.54;97952.48;108721;1279;23269;-91
2022/06/02 02:13:45;;;;;;;7.10;5.30;;;;;;;13.62;83.33;97961.38;108556;1279;22612;-93
2022/06/02 02:16:30;;;;;;;6.70;5.60;;;;;;;13.58;83.44;97962.89;108613;1279;23892;-92
2022/06/02 02:19:01;;;;;;;8.20;5.40;;;;;;;13.57;82.54;97959.34;108802;1279;23240;-92
2022/06/02 02:21:59;;;;;;;6.80;5.30;;;;;;;13.57;82.63;97963.14;108555;1279;22632;-94
2022/06/02 02:24:49;;;;;;;6.20;4.90;;;;;;;13.58;82.22;97965.17;107456;1279;23942;-92
2022/06/02 02:27:25;;;;;;;7.90;5.30;;;;;;;13.59;82.96;97962.98;108743;1279;22616;-88
2022/06/02 02:36:36;;;;;;;7.00;4.90;;;;;;;13.54;83.86;97950.17;106792;1267;22537;-92
2022/06/02 02:39:04;;;;;;;;;;;;;;;13.53;84.42;97954.50;109157;1277;22575;-88
2022/06/02 02:54:12;;;;;;;7.30;5.30;;;;;;;13.58;83.52;97968.98;108725;1279;22561;-91
2022/06/02 02:56:49;;;;;;;7.80;4.90;;;;;;;13.55;82.78;97964.83;108746;1279;22869;-95
2022/06/02 02:59:45;;;;;;;6.30;4.50;;;;;;;13.56;82.67;97961.17;108322;1279;22638;-92
2022/06/02 03:02:26;;;;;;;6.10;4.80;;;;;;;13.60;82.22;97958.40;109117;1279;22696;-93
2022/06/02 03:05:15;;;;;;;6.30;4.70;;;;;;;13.64;81.85;97946.52;109227;1279;22585;-89
2022/06/02 03:07:43;;;;;;;6.90;5.00;;;;;;;13.71;82.15;97940.50;109177;1279;22537;-92
2022/06/02 03:10:25;;;;;;;6.80;5.60;;;;;;;13.76;81.88;97941.30;109267;1279;24350;-90
2022/06/02 03:13:18;;;;;;;6.50;5.20;;;;;;;13.78;81.66;97942.89;109200;1279;23827;-93
2022/06/02 03:19:04;;;;;;;5.50;4.50;;;;;;;13.84;81.55;97954.37;109365;1275;22552;-90
2022/06/02 03:21:36;;;;;;;7.10;6.30;;;;;;;13.84;81.69;97947.90;109406;1277;22750;-87
2022/06/02 03:24:10;;;;;;;8.40;5.50;;;;;;;13.88;81.97;97941.85;109247;1277;22642;-91
2022/06/02 03:27:12;;;;;;;8.30;5.90;;;;;;;13.90;81.82;97941.79;109350;1277;22543;-90
2022/06/02 03:32:32;;;;;;;7.00;5.60;;;;;;;13.96;82.07;97931.14;109363;1267;22636;-90
2022/06/02 03:38:22;;;;;;;12.40;9.60;;;;;;;14.05;81.95;97930.71;109474;1267;22546;-90
2022/06/02 03:41:00;;;;;;;11.10;10.00;;;;;;;14.08;81.96;97931.83;109610;1277;22623;-89
2022/06/02 03:49:41;;;;;;;13.30;11.30;;;;;;;14.12;82.10;97943.69;109525;1266;23289;31
2022/06/02 03:55:16;;;;;;;11.30;10.30;;;;;;;14.09;82.13;97946.42;109809;1279;22328;-81
2022/06/02 03:58:05;;;;;;;12.40;11.20;;;;;;;14.09;82.18;97951.95;109560;1267;23297;-89
2022/06/02 04:00:58;;;;;;;9.20;8.30;;;;;;;14.10;82.22;97951.53;109758;1277;22555;-92
2022/06/02 04:07:02;;;;;;;8.80;7.90;;;;;;;14.20;82.25;97944.98;109660;1279;22442;-92
2022/06/02 04:09:43;;;;;;;9.60;8.20;;;;;;;14.28;82.60;97950.14;109387;1279;23374;-93
2022/06/02 04:15:46;;;;;;;6.60;5.80;;;;;;;14.33;82.41;97946.70;109348;1279;22437;-92
2022/06/02 04:18:32;;;;;;;8.60;7.60;;;;;;;14.37;82.60;97947.54;109406;1279;22995;-92
2022/06/02 04:21:12;;;;;;;10.70;7.90;;;;;;;14.45;82.90;97950.23;109429;1279;22314;-94
2022/06/02 04:27:13;;;;;;;10.10;7.80;;;;;;;14.51;82.77;97958.45;109528;1279;22470;-93
2022/06/02 04:30:04;;;;;;;10.60;9.30;;;;;;;14.50;82.83;97961.61;109482;1279;23099;-90
2022/06/02 04:32:48;;;;;;;9.80;8.10;;;;;;;14.50;83.65;97963.78;109437;1279;22496;-88
2022/06/02 04:35:47;;;;;;;9.30;6.40;;;;;;;14.52;83.63;97969.98;109451;1280;22272;-92
2022/06/02 04:38:39;;;;;;;9.20;7.40;;;;;;;14.56;83.47;97971.10;109293;1281;22379;-91
2022/06/02 04:41:20;;;;;;;10.90;7.60;;;;;;;14.66;83.27;97972.00;109315;1279;22329;-92
2022/06/02 04:44:21;;;;;;;46.50;35.30;;;;;;;14.75;83.37;97970.28;109211;1280;22321;-92
2022/06/02 04:47:06;;;;;;;13.20;11.80;;;;;;;14.83;83.54;97969.51;108869;1280;22429;-91
2022/06/02 04:49:42;;;;;;;13.40;12.00;;;;;;;14.89;83.20;97976.02;109213;1280;22499;-91
2022/06/02 04:52:30;;;;;;;12.60;11.50;;;;;;;14.91;83.35;97982.64;109282;1279;22364;-90
2022/06/02 04:55:21;;;;;;;11.80;10.80;;;;;;;14.97;83.24;97985.41;109229;1280;22349;-89
2022/06/02 04:58:14;;;;;;;15.20;13.80;;;;;;;15.03;83.34;97986.85;109221;1280;22429;-91
2022/06/02 05:01:12;;;;;;;16.90;15.30;;;;;;;15.06;83.34;97985.42;109205;1279;22575;-91
2022/06/02 05:03:54;;;;;;;19.50;17.90;;;;;;;15.08;83.58;97990.13;108956;1280;22496;-93
2022/06/02 05:06:40;;;;;;;12.90;11.60;;;;;;;15.10;83.44;97998.65;109283;1281;22459;-88
2022/06/02 05:09:59;;;;;;;12.30;11.00;;;;;;;15.09;83.55;98001.81;109465;1279;22447;-92
2022/06/02 05:13:08;;;;;;;12.10;10.90;;;;;;;15.03;83.82;98002.48;108570;1285;22997;-92
2022/06/02 05:15:51;;;;;;;11.90;10.70;;;;;;;14.98;83.69;97996.08;107959;1290;23388;-93
2022/06/02 05:18:37;;;;;;;11.70;9.90;;;;;;;14.98;83.78;98003.85;107903;1290;22399;-93
2022/06/02 05:21:39;;;;;;;11.10;10.00;;;;;;;14.96;84.47;98002.13;107889;1290;22538;-94
2022/06/02 05:24:28;;;;;;;11.80;10.50;;;;;;;14.94;84.49;98001.98;107974;1290;22628;-93
2022/06/02 05:30:13;;;;;;;14.20;11.70;;;;;;;14.95;84.66;97999.31;109684;1279;23166;-89
2022/06/02 05:33:01;;;;;;;13.30;10.90;;;;;;;15.04;84.70;98006.72;109581;1279;22490;-90
2022/06/02 05:35:29;;;;;;;13.20;12.10;;;;;;;15.13;84.52;98009.95;109247;1279;22305;-92
2022/06/02 05:38:14;;;;;;;13.90;12.40;;;;;;;15.21;84.85;98006.17;109496;1279;22354;-91
2022/06/02 05:41:14;;;;;;;13.30;12.00;;;;;;;15.33;84.49;98001.45;109593;1278;22258;-91
2022/06/02 05:43:51;;;;;;;13.40;12.10;;;;;;;15.41;84.33;98003.78;109544;1279;22455;-90
2022/06/02 05:46:32;;;;;;;9.80;8.90;;;;;;;15.45;84.48;98008.77;109526;1267;22612;-94
2022/06/02 05:58:46;;;;;;;7.10;5.90;;;;;;;15.55;84.65;98018.62;109539;1268;23250;-91
2022/06/02 06:01:16;;;;;;;8.10;5.60;;;;;;;15.59;84.57;98020.02;109700;1266;23194;-89
2022/06/02 06:04:23;;;;;;;7.80;5.80;;;;;;;15.62;84.68;98018.21;109731;1275;22283;-90
2022/06/02 06:07:01;;;;;;;7.30;5.90;;;;;;;15.71;84.54;98019.71;109409;1280;22500;-88
2022/06/02 06:09:51;;;;;;;7.10;6.20;;;;;;;15.74;84.43;98014.17;109710;1267;22528;-91
2022/06/02 06:15:15;;;;;;;11.00;8.00;;;;;;;15.85;84.33;98023.23;109627;1267;22526;-90
2022/06/02 06:36:02;;;;;;;11.30;6.00;;;;;;;16.50;83.83;98053.09;109727;1267;23058;31
2022/06/02 06:38:50;;;;;;;7.90;5.80;;;;;;;16.65;83.54;98051.23;109717;1265;23123;-89
2022/06/02 06:41:24;;;;;;;8.10;6.70;;;;;;;16.72;83.09;98054.35;109754;1277;22255;-90
2022/06/02 06:50:18;;;;;;;7.20;6.50;;;;;;;16.88;82.72;98066.20;109487;1268;23141;-90
2022/06/02 07:02:39;;;;;;;9.40;6.80;;;;;;;17.24;81.83;98083.09;109665;1280;22520;-91
2022/06/02 07:05:25;;;;;;;10.70;6.50;;;;;;;17.32;81.77;98084.64;109691;1267;22504;31
2022/06/02 07:08:11;;;;;;;10.30;7.00;;;;;;;17.41;80.86;98088.23;109419;1267;23584;31
2022/06/02 07:13:52;;;;;;;7.50;5.10;;;;;;;17.23;79.35;98092.47;109556;1268;22599;-88
2022/06/02 07:16:31;;;;;;;11.10;7.80;;;;;;;17.15;78.89;98094.89;109640;1269;22450;-94
2022/06/02 07:28:07;;;;;;;11.90;6.40;;;;;;;17.49;77.02;98100.23;109471;1267;22572;-95
2022/06/02 07:30:51;;;;;;;6.80;4.70;;;;;;;17.56;76.73;98111.45;109723;1276;22987;-95
2022/06/02 07:33:26;;;;;;;6.70;5.10;;;;;;;17.61;75.89;98105.39;109662;1277;23124;-92
2022/06/02 07:36:06;;;;;;;10.00;6.00;;;;;;;17.75;75.73;98112.62;109611;1276;22362;-92
2022/06/02 07:38:53;;;;;;;10.20;7.30;;;;;;;17.83;74.94;98112.67;109739;1276;22367;-93
2022/06/02 07:41:24;;;;;;;11.60;6.60;;;;;;;17.93;75.25;98111.41;109494;1277;22459;-93
2022/06/02 07:44:16;;;;;;;5.80;4.40;;;;;;;17.96;74.64;98110.80;109647;1274;22293;-91
2022/06/02 07:47:10;;;;;;;8.30;4.60;;;;;;;17.89;74.73;98115.44;109642;1277;22427;-91
2022/06/02 07:50:04;;;;;;;9.10;6.30;;;;;;;17.88;74.85;98124.10;109752;1276;22547;-91
2022/06/02 07:52:32;;;;;;;8.30;5.70;;;;;;;17.91;74.32;98125.74;109761;1275;22435;-90
2022/06/02 07:55:18;;;;;;;9.80;7.20;;;;;;;17.91;74.18;98127.17;109788;1276;22281;-92
2022/06/02 07:58:07;;;;;;;10.10;5.30;;;;;;;17.94;74.67;98132.85;109799;1276;22280;-92
2022/06/02 08:01:32;;;;;;;7.40;5.10;;;;;;;17.93;74.06;98134.92;109763;1276;22376;-93
2022/06/02 08:10:52;;;;;;;9.00;4.70;;;;;;;17.75;74.59;98146.09;109538;1279;22452;-94
2022/06/02 08:13:37;;;;;;;7.30;4.10;;;;;;;17.77;74.43;98149.95;109565;1279;22470;-95
2022/06/02 08:16:25;;;;;;;9.40;4.50;;;;;;;17.75;72.98;98155.20;109547;1279;22437;-94
2022/06/02 08:19:07;;;;;;;5.90;4.30;;;;;;;17.61;71.40;98163.92;109535;1278;22378;-93
2022/06/02 08:21:47;;;;;;;10.40;4.50;;;;;;;17.56;71.92;98163.75;109469;1278;23278;-93
2022/06/02 08:24:36;;;;;;;6.40;4.20;;;;;;;17.56;71.55;98166.64;109529;1278;22374;-92
2022/06/02 08:27:35;;;;;;;6.70;4.90;;;;;;;17.54;71.07;98175.98;109501;1278;22231;-93
2022/06/02 08:30:09;;;;;;;6.50;4.80;;;;;;;17.48;70.69;98179.67;109494;1278;22415;-94
2022/06/02 08:32:55;;;;;;;7.50;5.20;;;;;;;17.39;71.17;98178.46;109519;1278;22517;-90
2022/06/02 08:35:28;;;;;;;6.60;5.00;;;;;;;17.56;71.74;98179.50;109526;1278;23050;-94
2022/06/02 08:38:10;;;;;;;11.60;7.40;;;;;;;17.87;70.98;98186.52;109528;1278;22478;-93
2022/06/02 08:41:28;;;;;;;8.00;6.80;;;;;;;17.90;68.78;98192.08;109645;1277;22439;-96
2022/06/02 08:44:23;;;;;;;9.80;7.00;;;;;;;17.85;68.55;98196.21;109710;1277;23483;-92
2022/06/02 08:47:06;;;;;;;6.80;5.50;;;;;;;17.71;65.98;98199.77;109217;1277;22746;-93
2022/06/02 08:49:53;;;;;;;6.90;4.50;;;;;;;17.63;66.81;98194.89;109568;1277;22374;-93
2022/06/02 08:52:56;;;;;;;5.10;4.60;;;;;;;17.77;65.25;98200.27;109602;1275;22433;-94
2022/06/02 08:55:58;;;;;;;4.30;3.90;;;;;;;17.81;64.60;98204.15;109599;1277;22474;-94
2022/06/02 08:58:40;;;;;;;5.80;4.50;;;;;;;17.86;64.53;98203.89;109474;1278;22392;-91
2022/06/02 09:01:35;;;;;;;7.50;5.60;;;;;;;18.00;64.71;98202.09;109467;1278;22467;-92
2022/06/02 09:04:19;;;;;;;10.10;6.30;;;;;;;18.08;64.34;98199.83;109593;1277;22973;-92
2022/06/02 09:07:24;;;;;;;10.60;7.10;;;;;;;18.14;64.91;98207.21;109508;1279;22258;-91
2022/06/02 09:10:36;;;;;;;8.10;6.90;;;;;;;18.23;64.60;98204.91;109580;1275;23317;-89
2022/06/02 09:13:32;;;;;;;7.10;6.20;;;;;;;18.33;64.18;98213.48;109563;1276;22425;-86
2022/06/02 09:16:16;;;;;;;13.50;5.90;;;;;;;18.39;63.67;98214.98;109481;1277;22609;-87
2022/06/02 09:19:00;;;;;;;8.60;6.50;;;;;;;18.24;63.62;98218.79;109484;1275;22578;-88
2022/06/02 09:21:58;;;;;;;7.00;6.00;;;;;;;18.23;64.03;98221.50;109492;1277;22509;-85
2022/06/02 09:24:28;;;;;;;7.70;5.20;;;;;;;18.31;63.80;98220.81;109500;1277;22422;-86
2022/06/02 09:27:23;;;;;;;7.90;5.50;;;;;;;18.40;62.77;98223.61;109427;1277;22355;-87
2022/06/02 09:30:07;;;;;;;6.70;5.20;;;;;;;18.46;62.92;98225.20;109549;1276;23357;-87
2022/06/02 09:32:51;;;;;;;8.00;5.10;;;;;;;18.62;62.71;98229.49;109548;1276;23333;-87
2022/06/02 09:35:23;;;;;;;7.60;5.10;;;;;;;18.70;61.42;98229.34;109503;1276;22368;-86
2022/06/02 09:38:32;;;;;;;9.00;5.30;;;;;;;18.78;61.33;98233.30;109506;1277;22430;-88
2022/06/02 09:41:29;;;;;;;7.10;5.30;;;;;;;18.91;61.27;98227.90;109510;1277;22315;-87
2022/06/02 09:44:24;;;;;;;8.10;5.90;;;;;;;18.95;60.89;98233.09;109514;1277;22409;-85
2022/06/02 09:47:11;;;;;;;;;;;;;;;19.12;60.28;98226.63;109417;1277;22538;-86
2022/06/02 09:49:55;;;;;;;11.10;5.20;;;;;;;19.39;59.84;98222.98;109505;1277;22340;-89
2022/06/02 09:52:39;;;;;;;5.20;4.00;;;;;;;19.65;57.68;98224.64;109508;1276;22362;-86
2022/06/02 09:55:29;;;;;;;8.40;4.60;;;;;;;19.52;58.44;98229.59;109486;1277;22337;-88
2022/06/02 09:58:17;;;;;;;7.30;4.50;;;;;;;19.52;59.07;98229.06;109447;1277;22984;-87
2022/06/02 10:01:05;;;;;;;6.70;4.60;;;;;;;19.47;58.87;98232.13;109428;1277;22280;-87
2022/06/02 10:04:03;;;;;;;9.40;4.80;;;;;;;19.38;57.84;98228.42;109450;1277;23206;-87
2022/06/02 10:06:54;;;;;;;10.90;5.80;;;;;;;19.29;58.62;98240.77;109489;1276;22448;-88
2022/06/02 10:09:34;;;;;;;10.70;5.80;;;;;;;19.44;57.96;98242.45;109518;1277;22508;-88
2022/06/02 10:12:55;;;;;;;45.00;25.00;;;;;;;19.61;57.84;98237.27;109653;1276;22427;-86
2022/06/02 10:15:44;;;;;;;12.40;5.60;;;;;;;19.81;57.90;98233.36;109580;1277;22381;-88
2022/06/02 10:18:18;;;;;;;7.70;4.40;;;;;;;20.10;57.16;98234.34;109552;1277;22431;-86
2022/06/02 10:21:12;;;;;;;9.70;4.90;;;;;;;20.08;56.41;98238.88;109360;1277;260306;-91
2022/06/02 10:24:15;;;;;;;7.10;4.30;;;;;;;19.91;56.79;98249.86;109495;1277;22363;-90
2022/06/02 10:27:08;;;;;;;7.20;4.60;;;;;;;19.89;56.58;98250.58;109486;1277;22427;-89
2022/06/02 10:30:13;;;;;;;8.90;4.70;;;;;;;19.61;56.72;98254.05;109515;1277;22288;-90
2022/06/02 10:33:09;;;;;;;6.80;4.50;;;;;;;19.16;56.49;98260.67;109351;1278;22417;-90
2022/06/02 10:36:03;;;;;;;7.60;5.20;;;;;;;18.97;56.80;98259.98;109536;1276;22436;-88
2022/06/02 10:38:45;;;;;;;8.30;4.80;;;;;;;18.97;56.54;98257.56;109541;1277;22449;-89
2022/06/02 10:41:41;;;;;;;8.00;5.30;;;;;;;19.02;56.74;98262.88;109559;1277;22330;-88
2022/06/02 10:44:39;;;;;;;7.70;4.60;;;;;;;19.14;56.29;98256.73;109496;1277;22371;-88
2022/06/02 10:47:28;;;;;;;7.30;4.50;;;;;;;19.20;56.50;98254.33;109497;1277;22325;-89
2022/06/02 10:50:30;;;;;;;8.30;5.00;;;;;;;19.49;56.82;98251.55;109504;1277;22449;-90
2022/06/02 10:53:03;;;;;;;9.90;4.90;;;;;;;19.88;56.59;98255.34;109335;1279;22473;-89
2022/06/02 10:55:58;;;;;;;9.90;4.40;;;;;;;20.07;55.84;98258.54;109584;1277;22479;-91
2022/06/02 10:58:29;;;;;;;6.80;4.40;;;;;;;20.15;54.64;98261.80;109397;1277;22505;-91
2022/06/02 11:01:16;;;;;;;7.10;4.30;;;;;;;20.28;55.43;98258.61;109580;1277;22431;-90
2022/06/02 11:04:34;;;;;;;7.10;3.50;;;;;;;20.59;54.07;98259.98;109509;1278;22346;-84
2022/06/02 11:07:29;;;;;;;5.70;4.10;;;;;;;20.64;53.36;98261.36;109276;1278;22423;-89
2022/06/02 11:10:31;;;;;;;6.70;4.00;;;;;;;20.73;53.02;98260.38;109463;1277;22551;-87
2022/06/02 11:13:39;;;;;;;6.70;3.30;;;;;;;20.94;53.21;98258.96;109495;1277;22449;-87
2022/06/02 11:16:19;;;;;;;5.20;3.30;;;;;;;21.20;53.44;98260.92;108951;1283;22433;-88
2022/06/02 11:18:58;;;;;;;4.00;2.80;;;;;;;21.40;50.84;98261.04;108957;1281;22364;-90
2022/06/02 11:22:05;;;;;;;3.70;2.80;;;;;;;21.39;48.10;98267.38;108950;1281;22384;-87
2022/06/02 11:24:51;;;;;;;3.80;2.80;;;;;;;21.31;47.27;98267.73;108769;1283;22559;-86
2022/06/02 11:27:47;;;;;;;5.00;3.00;;;;;;;21.25;47.02;98263.91;108927;1281;22493;-88
2022/06/02 11:30:36;;;;;;;3.70;2.90;;;;;;;21.20;47.26;98268.75;109129;1281;22528;-88
2022/06/02 11:33:28;;;;;;;4.60;2.90;;;;;;;21.13;47.51;98257.63;109165;1281;22521;-88
2022/06/02 11:36:02;;;;;;;4.30;3.10;;;;;;;21.45;48.50;98261.51;108998;1281;22321;-89
2022/06/02 11:38:57;;;;;;;4.00;2.90;;;;;;;21.71;46.26;98272.29;109161;1281;22392;-89
2022/06/02 11:41:36;;;;;;;4.90;2.70;;;;;;;21.55;44.64;98273.48;109013;1281;22406;-89
2022/06/02 11:44:06;;;;;;;5.80;2.90;;;;;;;21.56;43.21;98276.16;108989;1281;22446;-87
2022/06/02 11:47:12;;;;;;;6.00;2.70;;;;;;;21.57;44.79;98272.95;109073;1277;22305;-88
2022/06/02 11:50:02;;;;;;;6.70;2.60;;;;;;;21.80;45.30;98267.36;109518;1277;22497;-82
2022/06/02 11:53:07;;;;;;;3.60;2.40;;;;;;;22.14;44.01;98270.71;109533;1277;23043;-84
2022/06/02 11:56:04;;;;;;;3.80;2.30;;;;;;;22.14;43.55;98275.35;109443;1277;22281;-80
2022/06/02 11:58:51;;;;;;;4.70;2.60;;;;;;;21.93;42.86;98273.40;109545;1277;22946;-78
2022/06/02 12:01:40;;;;;;;4.20;2.50;;;;;;;21.83;42.84;98273.91;109505;1275;22373;-80
2022/06/02 12:04:36;;;;;;;5.30;2.60;;;;;;;21.78;42.46;98271.26;109524;1276;22427;-80
2022/06/02 12:07:41;;;;;;;4.10;2.40;;;;;;;21.60;42.96;98278.52;109376;1277;23135;-81
2022/06/02 12:10:34;;;;;;;3.40;2.50;;;;;;;21.87;42.82;98275.09;109488;1277;22411;-81
2022/06/02 12:13:44;;;;;;;3.50;2.80;;;;;;;21.98;41.36;98280.07;109473;1277;22418;-81
2022/06/02 12:16:32;;;;;;;5.70;2.80;;;;;;;22.03;41.85;98273.57;109512;1277;22321;-81
2022/06/02 12:19:38;;;;;;;2.90;2.50;;;;;;;22.29;41.24;98287.14;109518;1277;22462;-81
2022/06/02 12:22:48;;;;;;;4.50;2.70;;;;;;;22.31;39.63;98292.27;109510;1277;22841;-82
2022/06/02 12:25:30;;;;;;;4.80;2.40;;;;;;;22.25;39.48;98289.43;109489;1277;22492;-80
2022/06/02 12:28:24;;;;;;;4.00;2.30;;;;;;;22.32;39.19;98290.88;109510;1277;22317;-80
2022/06/02 12:31:13;;;;;;;3.60;2.40;;;;;;;22.36;39.75;98292.36;109104;1277;22534;-80
2022/06/02 12:33:53;;;;;;;3.40;2.50;;;;;;;22.33;39.95;98294.98;109500;1277;22520;-80
2022/06/02 12:36:32;;;;;;;5.30;2.50;;;;;;;21.94;39.89;98300.00;109478;1276;22322;-80
2022/06/02 12:39:30;;;;;;;3.40;2.40;;;;;;;21.78;40.33;98296.63;109376;1277;23040;-80
2022/06/02 12:42:42;;;;;;;4.70;2.20;;;;;;;22.07;40.05;98289.88;109551;1277;23142;-80
2022/06/02 12:45:25;;;;;;;4.60;2.70;;;;;;;22.25;38.20;98295.00;108738;1277;22511;-81
2022/06/02 12:48:14;;;;;;;3.40;2.20;;;;;;;22.34;38.55;98281.82;109557;1277;22390;-80
2022/06/02 12:51:11;;;;;;;4.80;3.10;;;;;;;22.75;37.39;98293.27;109580;1276;23014;-81
2022/06/02 12:53:54;;;;;;;3.10;2.60;;;;;;;22.81;36.17;98296.74;109443;1276;22528;-82
2022/06/02 12:56:34;;;;;;;3.10;2.20;;;;;;;22.87;36.82;98291.51;109534;1277;22532;-81
2022/06/02 12:59:05;;;;;;;3.90;2.20;;;;;;;22.91;36.19;98296.59;109505;1277;22519;-81
2022/06/02 13:01:58;;;;;;;3.60;2.20;;;;;;;22.85;36.68;98294.67;109469;1276;22329;-81
2022/06/02 13:04:48;;;;;;;3.50;2.40;;;;;;;22.95;36.30;98292.01;109348;1277;22404;-82
2022/06/02 13:07:44;;;;;;;4.40;2.20;;;;;;;22.89;35.54;98287.75;109561;1277;22878;-81
2022/06/02 13:10:42;;;;;;;5.10;2.40;;;;;;;23.01;35.60;98290.23;109522;1277;22371;-80
2022/06/02 13:13:13;;;;;;;6.90;2.50;;;;;;;22.81;35.14;98293.69;109561;1277;22362;-82
2022/06/02 13:16:18;;;;;;;3.60;2.30;;;;;;;22.61;35.09;98287.82;109435;1277;22483;-82
2022/06/02 13:19:03;;;;;;;5.40;2.90;;;;;;;22.47;35.39;98284.14;109459;1277;22318;-80
2022/06/02 13:21:35;;;;;;;7.00;2.40;;;;;;;22.45;35.52;98285.50;109514;1277;22260;-80
2022/06/02 13:24:32;;;;;;;6.30;2.70;;;;;;;22.58;35.46;98283.60;109542;1277;22472;-80
2022/06/02 13:27:03;;;;;;;3.70;2.20;;;;;;;22.64;35.68;98283.23;109527;1277;22444;-81
2022/06/02 13:30:01;;;;;;;3.20;2.20;;;;;;;22.87;35.56;98288.27;109537;1277;22467;-80
2022/06/02 13:32:51;;;;;;;5.60;2.60;;;;;;;22.64;33.75;98288.64;109537;1277;22606;-81
2022/06/02 13:35:37;;;;;;;3.70;2.00;;;;;;;22.30;34.30;98291.40;109505;1276;22408;-80
2022/06/02 13:38:32;;;;;;;3.10;2.20;;;;;;;22.34;33.89;98292.02;109523;1277;22306;-80
2022/06/02 13:41:00;;;;;;;3.30;2.20;;;;;;;22.52;34.22;98285.25;109500;1277;23058;-79
2022/06/02 13:43:48;;;;;;;4.20;2.30;;;;;;;22.80;34.39;98280.33;109481;1277;23478;-80
2022/06/02 13:46:54;;;;;;;3.50;2.50;;;;;;;23.06;33.22;98283.30;109512;1277;22378;-80
2022/06/02 13:49:41;;;;;;;6.70;2.20;;;;;;;23.17;34.25;98281.33;109531;1277;22409;-81
2022/06/02 13:52:31;;;;;;;2.80;2.10;;;;;;;23.48;33.79;98274.48;109506;1276;22543;-80
2022/06/02 13:58:28;;;;;;;5.20;2.50;;;;;;;23.44;32.39;98276.33;109511;1277;23089;-81
2022/06/02 14:01:23;;;;;;;3.50;2.10;;;;;;;23.38;33.24;98284.97;109520;1277;22409;-85
2022/06/02 14:04:17;;;;;;;5.80;2.50;;;;;;;23.33;33.22;98282.70;109657;1277;22447;-88
2022/06/02 14:06:52;;;;;;;6.40;3.20;;;;;;;23.52;33.63;98280.27;109571;1277;22402;-89
2022/06/02 14:09:23;;;;;;;6.50;2.40;;;;;;;23.88;34.02;98273.52;109461;1277;22475;-89
2022/06/02 14:12:01;;;;;;;4.00;2.50;;;;;;;24.52;33.57;98274.11;109628;1277;22265;-91
2022/06/02 14:14:47;;;;;;;7.10;2.00;;;;;;;24.68;32.27;98274.16;109612;1276;22571;-90
2022/06/02 14:17:26;;;;;;;5.30;2.30;;;;;;;24.93;32.88;98266.66;109585;1277;22427;-90
2022/06/02 14:20:12;;;;;;;4.20;2.20;;;;;;;25.33;31.78;98263.12;109576;1277;22391;-92
2022/06/02 14:22:52;;;;;;;3.70;1.90;;;;;;;25.00;29.95;98270.10;109607;1277;22624;-91
2022/06/02 14:25:26;;;;;;;3.60;1.80;;;;;;;24.48;30.83;98272.89;109371;1276;22507;-88
2022/06/02 14:28:30;;;;;;;3.30;1.80;;;;;;;24.25;30.68;98270.81;109576;1277;23527;-90
2022/06/02 14:31:42;;;;;;;3.90;1.80;;;;;;;23.87;31.46;98271.70;109571;1277;22374;-86
2022/06/02 14:34:33;;;;;;;2.90;1.90;;;;;;;23.90;30.92;98265.05;109333;1277;22419;-88
2022/06/02 14:37:13;;;;;;;4.30;2.20;;;;;;;24.05;30.94;98267.09;109577;1277;22384;-89
2022/06/02 14:39:56;;;;;;;4.80;2.10;;;;;;;24.36;31.21;98271.05;109596;1277;22393;-88
2022/06/02 14:45:47;;;;;;;;;;;;;;;24.04;30.96;98278.09;109630;1277;22405;-92
2022/06/02 14:48:40;;;;;;;3.20;2.20;;;;;;;23.84;31.03;98281.10;109473;1277;22491;-92
2022/06/02 14:51:21;;;;;;;3.40;2.20;;;;;;;23.85;31.73;98285.84;109624;1277;23422;-90
2022/06/02 14:54:26;;;;;;;4.60;1.90;;;;;;;23.87;31.65;98281.16;109385;1277;23047;-88
2022/06/02 14:57:09;;;;;;;4.70;1.80;;;;;;;23.94;31.17;98274.77;109589;1277;22427;-92
2022/06/02 14:59:58;;;;;;;5.80;2.30;;;;;;;23.75;31.22;98277.65;109544;1277;22397;-88
2022/06/02 15:03:03;;;;;;;4.10;1.90;;;;;;;23.90;31.60;98271.27;109546;1277;22383;-88
2022/06/02 15:05:49;;;;;;;3.20;2.00;;;;;;;24.17;30.86;98273.33;109606;1277;22438;-92
2022/06/02 15:08:20;;;;;;;2.80;2.00;;;;;;;24.01;31.17;98274.99;109608;1277;22449;-90
2022/06/02 15:11:10;;;;;;;2.60;1.90;;;;;;;24.01;31.11;98273.27;109575;1277;22353;-91
2022/06/02 15:13:54;;;;;;;2.60;2.00;;;;;;;23.97;30.73;98269.54;109588;1277;22371;-92
2022/06/02 15:16:49;;;;;;;4.10;1.90;;;;;;;23.94;30.87;98273.27;109621;1277;22325;-93